createdAt,value
2017-07-18T00:00:21.455Z,4.87
2017-07-18T00:02:49.785Z,4.60
2017-07-18T00:05:18.128Z,5.30
2017-07-18T00:07:47.101Z,4.53
2017-07-18T00:10:15.446Z,4.97
2017-07-18T00:12:44.542Z,5.00
2017-07-18T00:15:14.167Z,4.30
2017-07-18T00:17:43.142Z,4.07
2017-07-18T00:20:11.469Z,4.77
2017-07-18T00:22:40.086Z,4.50
2017-07-18T00:25:08.437Z,4.77
2017-07-18T00:27:36.766Z,4.40
2017-07-18T00:30:05.679Z,4.60
2017-07-18T00:32:34.028Z,4.40
2017-07-18T00:35:02.362Z,4.00
2017-07-18T00:37:30.994Z,4.63
2017-07-18T00:39:59.352Z,4.30
2017-07-18T00:42:27.697Z,4.67
2017-07-18T00:44:56.366Z,5.63
2017-07-18T00:47:24.715Z,5.10
2017-07-18T00:49:53.055Z,5.13
2017-07-18T00:52:22.013Z,4.97
2017-07-18T00:54:50.349Z,4.60
2017-07-18T00:57:18.703Z,4.37
2017-07-18T00:59:47.329Z,5.07
2017-07-18T01:02:15.677Z,4.53
2017-07-18T01:04:44.027Z,6.27
2017-07-18T01:07:12.895Z,4.33
2017-07-18T01:09:41.226Z,5.90
2017-07-18T01:12:09.588Z,5.23
2017-07-18T01:14:38.456Z,5.70
2017-07-18T01:17:06.781Z,4.80
2017-07-18T01:19:35.516Z,4.53
2017-07-18T01:22:04.335Z,4.73
2017-07-18T01:24:32.676Z,4.53
2017-07-18T01:27:01.011Z,5.33
2017-07-18T01:29:29.707Z,4.77
2017-07-18T01:31:58.032Z,4.50
2017-07-18T01:34:26.368Z,4.97
2017-07-18T01:36:55.086Z,4.30
2017-07-18T01:39:23.426Z,4.93
2017-07-18T01:41:51.781Z,4.77
2017-07-18T01:44:20.533Z,5.30
2017-07-18T01:46:48.880Z,5.10
2017-07-18T01:49:17.245Z,5.00
2017-07-18T01:51:45.884Z,4.50
2017-07-18T01:54:14.225Z,4.67
2017-07-18T01:56:42.580Z,4.77
2017-07-18T01:59:11.749Z,4.90
2017-07-18T02:01:40.086Z,5.50
2017-07-18T02:04:08.441Z,4.23
2017-07-18T02:06:37.075Z,4.70
2017-07-18T02:09:05.444Z,4.97
2017-07-18T02:11:34.552Z,4.97
2017-07-18T02:14:03.215Z,6.23
2017-07-18T02:16:31.573Z,4.77
2017-07-18T02:18:59.937Z,5.00
2017-07-18T02:21:28.983Z,4.70
2017-07-18T02:23:57.316Z,5.57
2017-07-18T02:26:25.675Z,5.27
2017-07-18T02:28:54.294Z,5.50
2017-07-18T02:31:22.640Z,5.30
2017-07-18T02:33:50.993Z,5.67
2017-07-18T02:36:19.609Z,5.33
2017-07-18T02:38:47.961Z,5.37
2017-07-18T02:41:16.301Z,4.73
2017-07-18T02:43:45.135Z,4.60
2017-07-18T02:46:13.488Z,4.83
2017-07-18T02:48:42.599Z,4.00
2017-07-18T02:51:11.256Z,5.60
2017-07-18T02:53:40.441Z,4.20
2017-07-18T02:56:08.795Z,5.43
2017-07-18T02:58:37.476Z,5.17
2017-07-18T03:01:05.827Z,4.80
2017-07-18T03:03:34.169Z,5.23
2017-07-18T03:06:03.039Z,5.10
2017-07-18T03:08:31.383Z,4.50
2017-07-18T03:10:59.759Z,4.60
2017-07-18T03:13:28.496Z,4.60
2017-07-18T03:15:56.848Z,4.60
2017-07-18T03:18:25.177Z,4.87
2017-07-18T03:20:53.972Z,4.27
2017-07-18T03:23:22.779Z,4.73
2017-07-18T03:25:51.109Z,4.80
2017-07-18T03:28:20.252Z,5.03
2017-07-18T03:30:48.599Z,4.13
2017-07-18T03:33:16.949Z,4.40
2017-07-18T03:35:45.695Z,4.80
2017-07-18T03:38:14.015Z,4.30
2017-07-18T03:40:42.364Z,4.70
2017-07-18T03:43:11.116Z,4.30
2017-07-18T03:45:39.454Z,4.40
2017-07-18T03:48:07.786Z,4.60
2017-07-18T03:50:37.401Z,5.40
2017-07-18T03:53:05.748Z,5.17
2017-07-18T03:55:34.074Z,4.60
2017-07-18T03:58:02.692Z,4.93
2017-07-18T04:00:31.057Z,4.13
2017-07-18T04:02:59.401Z,4.10
2017-07-18T04:05:28.293Z,4.50
2017-07-18T04:07:56.631Z,3.90
2017-07-18T04:10:24.959Z,4.47
2017-07-18T04:12:53.725Z,3.60
2017-07-18T04:15:22.064Z,4.17
2017-07-18T04:17:50.398Z,4.13
2017-07-18T04:20:19.177Z,3.80
2017-07-18T04:22:47.508Z,4.20
2017-07-18T04:25:16.274Z,4.30
2017-07-18T04:27:45.047Z,4.27
2017-07-18T04:30:13.389Z,4.50
2017-07-18T04:32:41.725Z,4.80
2017-07-18T04:35:10.689Z,3.97
2017-07-18T04:37:39.023Z,4.07
2017-07-18T04:40:07.397Z,3.77
2017-07-18T04:42:36.021Z,3.70
2017-07-18T04:45:05.105Z,4.57
2017-07-18T04:47:33.444Z,4.30
2017-07-18T04:50:02.265Z,4.60
2017-07-18T04:52:30.625Z,4.90
2017-07-18T04:54:58.958Z,4.43
2017-07-18T04:57:27.935Z,4.60
2017-07-18T04:59:57.047Z,4.23
2017-07-18T05:02:25.392Z,4.40
2017-07-18T05:04:54.302Z,4.70
2017-07-18T05:07:22.636Z,4.77
2017-07-18T05:09:50.976Z,4.83
2017-07-18T05:12:19.755Z,4.57
2017-07-18T05:14:48.100Z,4.70
2017-07-18T05:17:16.486Z,4.57
2017-07-18T05:19:45.620Z,4.13
2017-07-18T05:22:13.980Z,5.37
2017-07-18T05:24:43.095Z,4.70
2017-07-18T05:27:11.866Z,4.07
2017-07-18T05:29:40.193Z,4.53
2017-07-18T05:32:08.531Z,5.27
2017-07-18T05:34:37.310Z,4.73
2017-07-18T05:37:04.936Z,4.50
2017-07-18T05:39:33.267Z,5.03
2017-07-18T05:42:02.369Z,4.40
2017-07-18T05:44:30.703Z,4.60
2017-07-18T05:46:59.054Z,5.47
2017-07-18T05:49:27.702Z,4.77
2017-07-18T05:51:56.050Z,4.30
2017-07-18T05:54:24.460Z,4.67
2017-07-18T05:56:53.078Z,4.77
2017-07-18T05:59:21.406Z,4.47
2017-07-18T06:01:50.522Z,4.30
2017-07-18T06:04:19.319Z,5.00
2017-07-18T06:06:47.657Z,4.70
2017-07-18T06:09:15.985Z,4.43
2017-07-18T06:11:44.625Z,4.97
2017-07-18T06:14:13.063Z,4.30
2017-07-18T06:16:41.415Z,4.23
2017-07-18T06:19:10.196Z,4.77
2017-07-18T06:21:38.559Z,5.80
2017-07-18T06:24:07.746Z,3.53
2017-07-18T06:26:36.495Z,3.80
2017-07-18T06:29:04.851Z,4.30
2017-07-18T06:31:33.177Z,3.60
2017-07-18T06:34:01.906Z,3.40
2017-07-18T06:36:30.266Z,4.70
2017-07-18T06:38:59.381Z,4.07
2017-07-18T06:41:28.168Z,3.90
2017-07-18T06:43:56.510Z,3.10
2017-07-18T06:46:24.842Z,3.47
2017-07-18T06:48:53.736Z,3.80
2017-07-18T06:51:22.107Z,4.03
2017-07-18T06:53:50.436Z,3.30
2017-07-18T06:56:19.272Z,3.60
2017-07-18T06:58:47.615Z,3.87
2017-07-18T07:01:15.980Z,4.17
2017-07-18T07:03:44.611Z,3.37
2017-07-18T07:06:13.751Z,4.23
2017-07-18T07:08:42.101Z,3.50
2017-07-18T07:11:10.826Z,3.63
2017-07-18T07:13:39.185Z,3.47
2017-07-18T07:16:07.530Z,6.20
2017-07-18T07:18:36.436Z,4.00
2017-07-18T07:21:04.777Z,3.20
2017-07-18T07:23:33.905Z,3.40
2017-07-18T07:26:02.652Z,3.97
2017-07-18T07:28:30.989Z,4.50
2017-07-18T07:30:59.339Z,4.50
2017-07-18T07:33:28.974Z,3.87
2017-07-18T07:35:57.342Z,3.40
2017-07-18T07:38:25.670Z,3.33
2017-07-18T07:40:54.328Z,3.00
2017-07-18T07:43:22.684Z,4.07
2017-07-18T07:45:51.024Z,3.70
2017-07-18T07:48:19.841Z,2.87
2017-07-18T07:50:48.186Z,3.00
2017-07-18T07:53:16.531Z,3.83
2017-07-18T07:55:45.489Z,3.60
2017-07-18T07:58:13.813Z,3.27
2017-07-18T08:00:42.161Z,3.23
2017-07-18T08:03:10.933Z,2.50
2017-07-18T08:05:39.258Z,2.80
2017-07-18T08:08:07.588Z,3.00
2017-07-18T08:10:37.207Z,3.27
2017-07-18T08:13:05.537Z,3.23
2017-07-18T08:15:33.878Z,3.23
2017-07-18T08:18:02.766Z,2.80
2017-07-18T08:20:32.003Z,3.13
2017-07-18T08:23:00.358Z,3.13
2017-07-18T08:25:29.321Z,2.97
2017-07-18T08:27:57.650Z,3.37
2017-07-18T08:30:25.982Z,3.50
2017-07-18T08:32:54.643Z,3.00
2017-07-18T08:35:23.788Z,3.67
2017-07-18T08:37:52.110Z,3.20
2017-07-18T08:40:21.455Z,3.33
2017-07-18T08:42:49.812Z,3.50
2017-07-18T08:45:18.919Z,2.93
2017-07-18T08:47:47.703Z,3.20
2017-07-18T08:50:16.033Z,3.50
2017-07-18T08:52:44.383Z,3.63
2017-07-18T08:55:13.045Z,3.53
2017-07-18T08:57:42.138Z,2.97
2017-07-18T09:00:11.237Z,3.20
2017-07-18T09:02:40.846Z,2.70
2017-07-18T09:05:09.178Z,3.57
2017-07-18T09:07:37.518Z,3.30
2017-07-18T09:10:06.336Z,3.17
2017-07-18T09:12:34.675Z,3.23
2017-07-18T09:15:03.042Z,3.33
2017-07-18T09:17:31.862Z,3.93
2017-07-18T09:20:00.213Z,3.60
2017-07-18T09:22:28.552Z,2.90
2017-07-18T09:24:57.387Z,2.87
2017-07-18T09:27:25.726Z,2.90
2017-07-18T09:29:54.095Z,2.80
2017-07-18T09:32:22.843Z,3.23
2017-07-18T09:34:51.201Z,3.30
2017-07-18T09:37:20.382Z,3.00
2017-07-18T09:39:49.299Z,3.90
2017-07-18T09:42:17.643Z,2.63
2017-07-18T09:44:46.000Z,3.60
2017-07-18T09:47:15.184Z,3.37
2017-07-18T09:49:43.550Z,2.73
2017-07-18T09:52:11.900Z,2.60
2017-07-18T09:54:40.574Z,2.83
2017-07-18T09:57:08.898Z,3.00
2017-07-18T09:59:37.242Z,3.53
2017-07-18T10:02:06.853Z,3.63
2017-07-18T10:04:35.181Z,3.40
2017-07-18T10:07:03.530Z,3.77
2017-07-18T10:09:32.301Z,3.97
2017-07-18T10:12:00.645Z,3.60
2017-07-18T10:14:29.002Z,3.70
2017-07-18T10:16:57.743Z,3.10
2017-07-18T10:19:26.069Z,4.60
2017-07-18T10:21:54.437Z,4.00
2017-07-18T10:24:23.131Z,4.17
2017-07-18T10:26:51.469Z,3.33
2017-07-18T10:29:19.824Z,3.43
2017-07-18T10:31:49.060Z,3.40
2017-07-18T10:34:17.399Z,3.60
2017-07-18T10:36:45.728Z,4.07
2017-07-18T10:39:14.505Z,3.40
2017-07-18T10:41:42.834Z,4.03
2017-07-18T10:44:11.171Z,3.03
2017-07-18T10:46:39.880Z,3.03
2017-07-18T10:49:08.241Z,3.27
2017-07-18T10:51:36.583Z,3.10
2017-07-18T10:54:05.406Z,3.13
2017-07-18T10:56:33.758Z,3.50
2017-07-18T10:59:02.880Z,3.03
2017-07-18T11:01:31.643Z,3.00
2017-07-18T11:03:59.977Z,3.20
2017-07-18T11:06:28.310Z,3.40
2017-07-18T11:08:56.954Z,3.10
2017-07-18T11:11:25.319Z,3.00
2017-07-18T11:13:53.659Z,3.60
2017-07-18T11:16:22.553Z,3.73
2017-07-18T11:18:50.903Z,3.37
2017-07-18T11:21:19.260Z,3.30
2017-07-18T11:23:47.883Z,3.33
2017-07-18T11:26:17.183Z,3.20
2017-07-18T11:28:46.289Z,3.07
2017-07-18T11:31:15.000Z,2.60
2017-07-18T11:33:43.340Z,3.27
2017-07-18T11:36:11.672Z,2.97
2017-07-18T11:38:40.439Z,3.30
2017-07-18T11:41:08.783Z,3.70
2017-07-18T11:43:37.114Z,3.30
2017-07-18T11:46:05.968Z,2.83
2017-07-18T11:48:34.298Z,3.00
2017-07-18T11:51:02.631Z,3.10
2017-07-18T11:53:31.303Z,3.00
2017-07-18T11:55:59.641Z,3.07
2017-07-18T11:58:28.005Z,3.43
2017-07-18T12:00:57.059Z,3.37
2017-07-18T12:03:25.399Z,2.70
2017-07-18T12:05:53.754Z,3.10
2017-07-18T12:08:22.378Z,3.47
2017-07-18T12:10:50.720Z,3.27
2017-07-18T12:13:19.064Z,3.20
2017-07-18T12:15:47.709Z,3.43
2017-07-18T12:18:33.656Z,3.43
2017-07-18T12:21:02.775Z,3.33
2017-07-18T12:23:31.128Z,3.97
2017-07-18T12:25:59.450Z,2.77
2017-07-18T12:28:28.175Z,2.80
2017-07-18T12:30:56.507Z,3.90
2017-07-18T12:33:24.854Z,3.23
2017-07-18T12:35:53.606Z,3.13
2017-07-18T12:38:21.944Z,2.87
2017-07-18T12:40:50.304Z,3.30
2017-07-18T12:43:19.268Z,3.10
2017-07-18T12:45:47.667Z,3.10
2017-07-18T12:48:16.084Z,3.23
2017-07-18T12:50:44.909Z,3.63
2017-07-18T12:53:13.254Z,4.13
2017-07-18T12:55:41.596Z,3.60
2017-07-18T12:58:10.384Z,3.63
2017-07-18T13:00:38.730Z,3.73
2017-07-18T13:03:07.833Z,3.20
2017-07-18T13:05:36.843Z,2.87
2017-07-18T13:08:05.188Z,3.60
2017-07-18T13:10:33.554Z,2.90
2017-07-18T13:13:02.269Z,3.27
2017-07-18T13:15:30.606Z,3.50
2017-07-18T13:17:58.965Z,3.40
2017-07-18T13:20:27.728Z,3.67
2017-07-18T13:22:56.076Z,3.40
2017-07-18T13:25:24.436Z,3.40
2017-07-18T13:27:53.735Z,3.70
2017-07-18T13:30:22.081Z,3.40
2017-07-18T13:32:50.454Z,3.40
2017-07-18T13:35:19.093Z,3.53
2017-07-18T13:37:47.438Z,3.10
2017-07-18T13:40:15.791Z,3.57
2017-07-18T13:42:44.669Z,3.37
2017-07-18T13:45:13.003Z,3.47
2017-07-18T13:47:41.368Z,3.80
2017-07-18T13:50:10.241Z,3.53
2017-07-18T13:52:38.586Z,3.30
2017-07-18T13:55:06.929Z,3.33
2017-07-18T13:57:35.762Z,3.37
2017-07-18T14:00:04.096Z,3.50
2017-07-18T14:02:32.425Z,3.63
2017-07-18T14:05:01.951Z,3.53
2017-07-18T14:07:30.319Z,4.30
2017-07-18T14:09:58.654Z,3.90
2017-07-18T14:12:27.497Z,4.90
2017-07-18T14:14:55.826Z,3.70
2017-07-18T14:17:24.159Z,3.57
2017-07-18T14:19:52.796Z,3.77
2017-07-18T14:22:21.129Z,4.37
2017-07-18T14:24:49.494Z,3.17
2017-07-18T14:27:18.194Z,3.43
2017-07-18T14:29:46.705Z,3.80
2017-07-18T14:32:15.059Z,3.73
2017-07-18T14:34:44.020Z,3.33
2017-07-18T14:37:12.369Z,3.70
2017-07-18T14:39:40.702Z,3.83
2017-07-18T14:42:09.350Z,3.47
2017-07-18T14:44:38.464Z,3.57
2017-07-18T14:47:06.794Z,4.20
2017-07-18T14:49:35.718Z,3.60
2017-07-18T14:52:04.062Z,4.33
2017-07-18T14:54:32.406Z,3.77
2017-07-18T14:57:01.310Z,3.63
2017-07-18T14:59:29.650Z,4.20
2017-07-18T15:01:57.988Z,4.80
2017-07-18T15:04:26.832Z,3.97
2017-07-18T15:06:55.167Z,4.07
2017-07-18T15:09:23.493Z,4.33
2017-07-18T15:11:52.109Z,3.60
2017-07-18T15:14:20.459Z,3.57
2017-07-18T15:16:48.794Z,4.00
2017-07-18T15:19:17.624Z,4.13
2017-07-18T15:21:45.990Z,3.87
2017-07-18T15:24:14.323Z,4.93
2017-07-18T15:26:43.191Z,4.23
2017-07-18T15:29:11.554Z,3.50
2017-07-18T15:31:40.306Z,3.93
2017-07-18T15:34:09.004Z,3.67
2017-07-18T15:36:37.352Z,3.53
2017-07-18T15:39:05.697Z,3.87
2017-07-18T15:41:34.628Z,4.20
2017-07-18T15:44:02.961Z,4.37
2017-07-18T15:46:31.307Z,3.60
2017-07-18T15:49:00.963Z,4.80
2017-07-18T15:51:29.299Z,3.87
2017-07-18T15:53:57.648Z,3.43
2017-07-18T15:56:26.296Z,3.43
2017-07-18T15:58:54.629Z,4.30
2017-07-18T16:01:22.972Z,4.20
2017-07-18T16:03:52.030Z,4.13
2017-07-18T16:06:20.358Z,3.63
2017-07-18T16:08:48.688Z,3.67
2017-07-18T16:11:17.300Z,3.80
2017-07-18T16:13:45.646Z,4.23
2017-07-18T16:16:13.978Z,4.73
2017-07-18T16:18:42.646Z,4.47
2017-07-18T16:21:11.008Z,4.33
2017-07-18T16:23:39.351Z,4.70
2017-07-18T16:26:09.595Z,4.23
2017-07-18T16:28:37.939Z,4.13
2017-07-18T16:31:06.276Z,4.60
2017-07-18T16:33:35.027Z,4.83
2017-07-18T16:36:03.371Z,4.90
2017-07-18T16:38:31.723Z,4.83
2017-07-18T16:41:00.513Z,4.53
2017-07-18T16:43:28.927Z,4.20
2017-07-18T16:45:57.271Z,4.20
2017-07-18T16:48:26.089Z,4.80
2017-07-18T16:50:54.443Z,4.60
2017-07-18T16:53:22.798Z,4.40
2017-07-18T16:55:51.558Z,4.60
2017-07-18T16:58:19.882Z,4.93
2017-07-18T17:00:48.210Z,4.97
2017-07-18T17:03:17.835Z,5.03
2017-07-18T17:05:46.178Z,5.30
2017-07-18T17:08:14.526Z,4.80
2017-07-18T17:10:43.307Z,4.87
2017-07-18T17:13:11.625Z,5.27
2017-07-18T17:15:39.963Z,5.53
2017-07-18T17:18:08.731Z,4.87
2017-07-18T17:20:37.066Z,4.33
2017-07-18T17:23:05.401Z,4.73
2017-07-18T17:25:34.201Z,5.20
2017-07-18T17:28:02.703Z,4.80
2017-07-18T17:30:31.029Z,4.70
2017-07-18T17:33:00.019Z,5.50
2017-07-18T17:35:28.351Z,4.70
2017-07-18T17:37:56.696Z,4.27
2017-07-18T17:40:25.347Z,4.90
2017-07-18T17:42:53.686Z,4.90
2017-07-18T17:45:22.078Z,5.03
2017-07-18T17:47:50.948Z,4.87
2017-07-18T17:50:19.313Z,4.87
2017-07-18T17:52:47.686Z,4.20
2017-07-18T17:55:16.781Z,5.03
2017-07-18T17:57:45.137Z,5.10
2017-07-18T18:00:14.241Z,5.60
2017-07-18T18:02:43.857Z,4.80
2017-07-18T18:05:12.206Z,5.97
2017-07-18T18:07:41.326Z,5.80
2017-07-18T18:10:10.955Z,5.63
2017-07-18T18:12:39.300Z,5.70
2017-07-18T18:15:08.423Z,4.80
2017-07-18T18:17:37.822Z,5.57
2017-07-18T18:20:06.163Z,5.13
2017-07-18T18:22:34.508Z,5.63
2017-07-18T18:25:03.267Z,4.90
2017-07-18T18:27:31.598Z,4.50
2017-07-18T18:29:59.931Z,5.13
2017-07-18T18:32:28.712Z,5.70
2017-07-18T18:34:57.062Z,4.83
2017-07-18T18:37:25.422Z,5.00
2017-07-18T18:39:54.404Z,5.10
2017-07-18T18:42:22.725Z,5.23
2017-07-18T18:44:51.083Z,4.97
2017-07-18T18:47:19.727Z,5.03
2017-07-18T18:49:48.076Z,5.17
2017-07-18T18:52:16.403Z,5.27
2017-07-18T18:54:45.252Z,4.80
2017-07-18T18:57:13.611Z,5.50
2017-07-18T18:59:42.707Z,5.00
2017-07-18T19:02:11.767Z,5.63
2017-07-18T19:04:40.106Z,5.00
2017-07-18T19:07:08.426Z,5.40
2017-07-18T19:09:37.381Z,4.97
2017-07-18T19:12:05.747Z,6.03
2017-07-18T19:14:34.870Z,5.20
2017-07-18T19:17:03.474Z,6.53
2017-07-18T19:19:31.810Z,6.20
2017-07-18T19:22:00.923Z,6.30
2017-07-18T19:24:29.920Z,7.07
2017-07-18T19:26:58.248Z,6.03
2017-07-18T19:29:26.578Z,6.70
2017-07-18T19:31:55.778Z,5.90
2017-07-18T19:34:24.138Z,6.93
2017-07-18T19:36:52.494Z,6.10
2017-07-18T19:39:21.231Z,5.43
2017-07-18T19:41:49.596Z,5.43
2017-07-18T19:44:17.954Z,5.93
2017-07-18T19:46:46.726Z,6.30
2017-07-18T19:49:15.071Z,6.50
2017-07-18T19:51:43.424Z,5.77
2017-07-18T19:54:12.311Z,6.47
2017-07-18T19:56:40.683Z,5.30
2017-07-18T19:59:09.040Z,5.27
2017-07-18T20:01:37.738Z,5.57
2017-07-18T20:04:06.090Z,5.70
2017-07-18T20:06:34.477Z,5.57
2017-07-18T20:09:03.443Z,5.87
2017-07-18T20:11:31.764Z,5.80
2017-07-18T20:14:00.125Z,5.83
2017-07-18T20:16:29.177Z,5.83
2017-07-18T20:18:57.529Z,6.37
2017-07-18T20:21:25.892Z,6.80
2017-07-18T20:23:55.392Z,5.20
2017-07-18T20:26:24.512Z,5.90
2017-07-18T20:28:52.861Z,5.83
2017-07-18T20:31:21.826Z,5.10
2017-07-18T20:33:50.183Z,6.87
2017-07-18T20:36:18.535Z,5.43
2017-07-18T20:38:47.283Z,5.90
2017-07-18T20:41:15.639Z,6.53
2017-07-18T20:43:43.971Z,6.73
2017-07-18T20:46:12.894Z,6.50
2017-07-18T20:48:41.250Z,6.50
2017-07-18T20:51:09.592Z,6.13
2017-07-18T20:53:38.397Z,5.63
2017-07-18T20:56:07.549Z,6.37
2017-07-18T20:58:35.883Z,6.60
2017-07-18T21:01:04.562Z,6.40
2017-07-18T21:03:32.889Z,7.47
2017-07-18T21:06:01.233Z,6.73
2017-07-18T21:08:29.888Z,6.23
2017-07-18T21:10:58.232Z,7.03
2017-07-18T21:13:26.610Z,6.93
2017-07-18T21:15:55.647Z,6.67
2017-07-18T21:18:23.986Z,6.50
2017-07-18T21:20:52.322Z,6.97
2017-07-18T21:23:21.719Z,6.70
2017-07-18T21:25:50.095Z,6.50
2017-07-18T21:28:19.198Z,6.70
2017-07-18T21:30:48.813Z,6.33
2017-07-18T21:33:17.167Z,6.80
2017-07-18T21:35:46.270Z,6.43
2017-07-18T21:38:15.112Z,7.20
2017-07-18T21:40:43.525Z,6.63
2017-07-18T21:43:11.865Z,6.70
2017-07-18T21:45:40.536Z,6.90
2017-07-18T21:48:08.884Z,6.53
2017-07-18T21:50:37.227Z,7.20
2017-07-18T21:53:05.872Z,7.20
2017-07-18T21:55:34.996Z,6.97
2017-07-18T21:58:03.336Z,6.53
2017-07-18T22:00:33.072Z,6.90
2017-07-18T22:03:01.431Z,6.87
2017-07-18T22:05:30.527Z,6.20
2017-07-18T22:08:00.152Z,6.80
2017-07-18T22:10:28.501Z,6.60
2017-07-18T22:12:57.613Z,6.60
2017-07-18T22:15:26.292Z,6.63
2017-07-18T22:17:55.412Z,5.47
2017-07-18T22:20:23.763Z,6.40
2017-07-18T22:22:52.661Z,5.47
2017-07-18T22:25:21.004Z,6.57
2017-07-18T22:27:49.360Z,6.93
2017-07-18T22:30:18.301Z,6.60
2017-07-18T22:32:46.630Z,7.43
2017-07-18T22:35:14.974Z,7.27
2017-07-18T22:37:44.385Z,7.43
2017-07-18T22:40:12.732Z,6.83
2017-07-18T22:42:41.083Z,6.93
2017-07-18T22:45:09.813Z,6.37
2017-07-18T22:47:38.181Z,6.63
2017-07-18T22:50:06.523Z,6.73
2017-07-18T22:52:35.147Z,5.93
2017-07-18T22:55:03.516Z,6.07
2017-07-18T22:57:31.880Z,6.70
2017-07-18T23:00:00.723Z,6.50
2017-07-18T23:02:29.064Z,7.00
2017-07-18T23:04:57.411Z,6.20
2017-07-18T23:07:26.369Z,6.53
2017-07-18T23:09:54.706Z,5.50
2017-07-18T23:12:23.062Z,5.73
2017-07-18T23:14:51.677Z,5.77
2017-07-18T23:17:19.999Z,6.10
2017-07-18T23:19:48.361Z,6.13
2017-07-18T23:22:17.064Z,5.70
2017-07-18T23:24:45.395Z,6.20
2017-07-18T23:27:13.745Z,5.90
2017-07-18T23:29:42.690Z,5.40
2017-07-18T23:32:11.021Z,5.83
2017-07-18T23:34:39.355Z,5.50
2017-07-18T23:37:08.134Z,5.80
2017-07-18T23:39:36.487Z,6.00
2017-07-18T23:42:04.817Z,6.13
2017-07-18T23:44:33.463Z,6.90
2017-07-18T23:47:01.833Z,5.40
2017-07-18T23:49:30.173Z,6.00
2017-07-18T23:51:59.174Z,6.03
2017-07-18T23:54:27.509Z,6.57
2017-07-18T23:56:55.846Z,6.60
2017-07-18T23:59:24.504Z,6.97
